sensor_id;sensor_type;location;lat;lon;timestamp;temperature;humidity
41547;DHT22;27271;45.412;10.852;2023-03-14T00:00:59;11.10;14.50
41547;DHT22;27271;45.412;10.852;2023-03-14T00:04:21;11.10;11.00
41547;DHT22;27271;45.412;10.852;2023-03-14T00:07:43;11.10;7.20
41547;DHT22;27271;45.412;10.852;2023-03-14T00:11:14;11.10;9.50
41547;DHT22;27271;45.412;10.852;2023-03-14T00:14:36;11.10;9.80
41547;DHT22;27271;45.412;10.852;2023-03-14T00:17:58;11.10;19.20
41547;DHT22;27271;45.412;10.852;2023-03-14T00:21:20;11.10;14.20
41547;DHT22;27271;45.412;10.852;2023-03-14T00:24:43;11.20;9.20
41547;DHT22;27271;45.412;10.852;2023-03-14T00:28:04;11.10;29.70
41547;DHT22;27271;45.412;10.852;2023-03-14T00:31:26;11.00;26.90
41547;DHT22;27271;45.412;10.852;2023-03-14T00:34:49;11.10;41.30
41547;DHT22;27271;45.412;10.852;2023-03-14T00:38:11;11.00;28.60
41547;DHT22;27271;45.412;10.852;2023-03-14T00:41:33;11.00;40.70
41547;DHT22;27271;45.412;10.852;2023-03-14T00:44:55;11.00;31.60
41547;DHT22;27271;45.412;10.852;2023-03-14T00:48:18;11.00;36.80
41547;DHT22;27271;45.412;10.852;2023-03-14T00:51:41;11.00;30.60
41547;DHT22;27271;45.412;10.852;2023-03-14T00:55:03;11.10;29.40
41547;DHT22;27271;45.412;10.852;2023-03-14T00:58:26;11.10;24.20
41547;DHT22;27271;45.412;10.852;2023-03-14T01:01:48;11.00;22.70
41547;DHT22;27271;45.412;10.852;2023-03-14T01:05:10;11.00;25.20
41547;DHT22;27271;45.412;10.852;2023-03-14T01:08:32;11.00;30.00
41547;DHT22;27271;45.412;10.852;2023-03-14T01:11:55;10.90;36.30
41547;DHT22;27271;45.412;10.852;2023-03-14T01:15:18;10.90;42.90
41547;DHT22;27271;45.412;10.852;2023-03-14T01:18:41;10.80;48.50
41547;DHT22;27271;45.412;10.852;2023-03-14T01:22:05;10.70;56.30
41547;DHT22;27271;45.412;10.852;2023-03-14T01:25:27;10.70;64.00
41547;DHT22;27271;45.412;10.852;2023-03-14T01:28:51;10.60;75.00
41547;DHT22;27271;45.412;10.852;2023-03-14T01:32:14;10.50;81.60
41547;DHT22;27271;45.412;10.852;2023-03-14T01:35:36;10.40;95.10
41547;DHT22;27271;45.412;10.852;2023-03-14T01:38:58;10.40;98.30
41547;DHT22;27271;45.412;10.852;2023-03-14T01:42:20;10.30;99.90
41547;DHT22;27271;45.412;10.852;2023-03-14T01:49:30;10.20;99.90
41547;DHT22;27271;45.412;10.852;2023-03-14T01:53:01;10.30;99.90
41547;DHT22;27271;45.412;10.852;2023-03-14T01:56:23;10.30;99.90
41547;DHT22;27271;45.412;10.852;2023-03-14T01:59:52;10.40;95.60
41547;DHT22;27271;45.412;10.852;2023-03-14T02:03:16;10.40;70.80
41547;DHT22;27271;45.412;10.852;2023-03-14T02:07:22;10.50;48.80
41547;DHT22;27271;45.412;10.852;2023-03-14T02:10:54;10.50;38.80
41547;DHT22;27271;45.412;10.852;2023-03-14T02:14:33;10.50;31.10
41547;DHT22;27271;45.412;10.852;2023-03-14T02:18:18;10.50;28.40
41547;DHT22;27271;45.412;10.852;2023-03-14T02:22:11;10.60;23.00
41547;DHT22;27271;45.412;10.852;2023-03-14T02:26:14;10.60;18.10
41547;DHT22;27271;45.412;10.852;2023-03-14T02:29:45;10.70;13.60
41547;DHT22;27271;45.412;10.852;2023-03-14T02:33:14;10.80;7.30
41547;DHT22;27271;45.412;10.852;2023-03-14T02:36:41;10.80;8.40
41547;DHT22;27271;45.412;10.852;2023-03-14T02:40:04;10.80;2.90
41547;DHT22;27271;45.412;10.852;2023-03-14T02:43:30;10.90;3.70
41547;DHT22;27271;45.412;10.852;2023-03-14T02:46:57;11.00;1.00
41547;DHT22;27271;45.412;10.852;2023-03-14T02:50:31;11.00;1.00
41547;DHT22;27271;45.412;10.852;2023-03-14T02:53:57;11.10;1.00
41547;DHT22;27271;45.412;10.852;2023-03-14T02:57:24;11.20;1.00
41547;DHT22;27271;45.412;10.852;2023-03-14T03:00:53;11.30;1.00
41547;DHT22;27271;45.412;10.852;2023-03-14T03:04:18;11.40;1.00
41547;DHT22;27271;45.412;10.852;2023-03-14T03:07:42;11.40;1.00
41547;DHT22;27271;45.412;10.852;2023-03-14T03:11:05;11.40;1.00
41547;DHT22;27271;45.412;10.852;2023-03-14T03:14:29;11.50;1.00
41547;DHT22;27271;45.412;10.852;2023-03-14T03:17:54;11.40;1.00
41547;DHT22;27271;45.412;10.852;2023-03-14T03:21:16;11.40;1.00
41547;DHT22;27271;45.412;10.852;2023-03-14T03:24:39;11.40;1.00
41547;DHT22;27271;45.412;10.852;2023-03-14T03:28:02;11.40;1.00
41547;DHT22;27271;45.412;10.852;2023-03-14T03:31:31;11.40;1.00
41547;DHT22;27271;45.412;10.852;2023-03-14T03:34:53;11.50;1.00
41547;DHT22;27271;45.412;10.852;2023-03-14T03:38:16;11.50;1.00
41547;DHT22;27271;45.412;10.852;2023-03-14T03:41:39;11.50;1.00
41547;DHT22;27271;45.412;10.852;2023-03-14T03:45:02;11.50;1.00
41547;DHT22;27271;45.412;10.852;2023-03-14T03:48:27;11.50;1.00
41547;DHT22;27271;45.412;10.852;2023-03-14T03:51:49;11.60;1.00
41547;DHT22;27271;45.412;10.852;2023-03-14T03:55:11;11.60;1.00
41547;DHT22;27271;45.412;10.852;2023-03-14T03:58:33;11.50;1.00
41547;DHT22;27271;45.412;10.852;2023-03-14T04:01:57;11.60;1.00
41547;DHT22;27271;45.412;10.852;2023-03-14T04:05:19;11.60;1.00
41547;DHT22;27271;45.412;10.852;2023-03-14T04:08:51;11.70;1.00
41547;DHT22;27271;45.412;10.852;2023-03-14T04:12:33;11.70;1.00
41547;DHT22;27271;45.412;10.852;2023-03-14T04:16:24;11.70;1.00
41547;DHT22;27271;45.412;10.852;2023-03-14T04:19:53;11.70;1.00
41547;DHT22;27271;45.412;10.852;2023-03-14T04:23:22;11.70;1.00
41547;DHT22;27271;45.412;10.852;2023-03-14T04:26:46;11.70;1.00
41547;DHT22;27271;45.412;10.852;2023-03-14T04:30:09;11.80;1.00
41547;DHT22;27271;45.412;10.852;2023-03-14T04:33:41;11.80;1.00
41547;DHT22;27271;45.412;10.852;2023-03-14T04:37:08;11.80;1.00
41547;DHT22;27271;45.412;10.852;2023-03-14T04:40:40;11.80;1.00
41547;DHT22;27271;45.412;10.852;2023-03-14T04:44:02;11.80;1.00
41547;DHT22;27271;45.412;10.852;2023-03-14T04:47:24;11.80;1.00
41547;DHT22;27271;45.412;10.852;2023-03-14T04:50:48;11.90;1.00
41547;DHT22;27271;45.412;10.852;2023-03-14T04:54:11;11.90;1.00
41547;DHT22;27271;45.412;10.852;2023-03-14T04:57:33;11.90;1.00
41547;DHT22;27271;45.412;10.852;2023-03-14T05:00:55;11.80;1.00
41547;DHT22;27271;45.412;10.852;2023-03-14T05:04:35;11.80;1.00
41547;DHT22;27271;45.412;10.852;2023-03-14T05:08:10;11.70;1.00
41547;DHT22;27271;45.412;10.852;2023-03-14T05:11:53;11.80;1.00
41547;DHT22;27271;45.412;10.852;2023-03-14T05:15:35;11.80;1.00
41547;DHT22;27271;45.412;10.852;2023-03-14T05:19:03;11.80;1.00
41547;DHT22;27271;45.412;10.852;2023-03-14T05:22:52;11.80;1.00
41547;DHT22;27271;45.412;10.852;2023-03-14T05:26:39;11.80;1.00
41547;DHT22;27271;45.412;10.852;2023-03-14T05:30:29;11.80;1.00
41547;DHT22;27271;45.412;10.852;2023-03-14T05:34:13;11.80;1.00
41547;DHT22;27271;45.412;10.852;2023-03-14T05:37:46;11.90;1.00
41547;DHT22;27271;45.412;10.852;2023-03-14T05:41:30;11.80;1.00
41547;DHT22;27271;45.412;10.852;2023-03-14T05:45:11;11.90;1.00
41547;DHT22;27271;45.412;10.852;2023-03-14T05:48:52;11.90;1.00
41547;DHT22;27271;45.412;10.852;2023-03-14T05:52:32;11.70;99.90
41547;DHT22;27271;45.412;10.852;2023-03-14T05:56:10;11.00;99.90
41547;DHT22;27271;45.412;10.852;2023-03-14T05:59:55;10.50;1.00
41547;DHT22;27271;45.412;10.852;2023-03-14T06:03:33;10.10;99.90
41547;DHT22;27271;45.412;10.852;2023-03-14T06:06:55;9.90;1.00
41547;DHT22;27271;45.412;10.852;2023-03-14T06:10:18;9.80;19.30
41547;DHT22;27271;45.412;10.852;2023-03-14T06:13:41;9.70;99.90
41547;DHT22;27271;45.412;10.852;2023-03-14T06:17:03;9.70;99.90
41547;DHT22;27271;45.412;10.852;2023-03-14T06:20:32;9.60;91.90
41547;DHT22;27271;45.412;10.852;2023-03-14T06:23:55;9.60;99.90
41547;DHT22;27271;45.412;10.852;2023-03-14T06:27:21;9.60;99.90
41547;DHT22;27271;45.412;10.852;2023-03-14T06:30:48;9.60;99.90
41547;DHT22;27271;45.412;10.852;2023-03-14T06:34:10;9.70;99.90
41547;DHT22;27271;45.412;10.852;2023-03-14T06:37:33;9.60;99.90
41547;DHT22;27271;45.412;10.852;2023-03-14T06:40:56;9.60;99.90
41547;DHT22;27271;45.412;10.852;2023-03-14T06:44:29;9.60;99.90
41547;DHT22;27271;45.412;10.852;2023-03-14T06:47:52;9.60;99.90
41547;DHT22;27271;45.412;10.852;2023-03-14T06:51:22;9.60;99.90
41547;DHT22;27271;45.412;10.852;2023-03-14T06:54:44;9.60;99.90
41547;DHT22;27271;45.412;10.852;2023-03-14T06:58:07;9.60;99.90
41547;DHT22;27271;45.412;10.852;2023-03-14T07:01:35;9.60;99.90
41547;DHT22;27271;45.412;10.852;2023-03-14T07:05:00;9.70;99.90
41547;DHT22;27271;45.412;10.852;2023-03-14T07:08:23;9.70;99.90
41547;DHT22;27271;45.412;10.852;2023-03-14T07:11:45;9.70;99.90
41547;DHT22;27271;45.412;10.852;2023-03-14T07:15:09;9.70;99.90
41547;DHT22;27271;45.412;10.852;2023-03-14T07:18:43;9.70;99.90
41547;DHT22;27271;45.412;10.852;2023-03-14T07:22:05;9.80;99.90
41547;DHT22;27271;45.412;10.852;2023-03-14T07:25:27;9.90;99.90
41547;DHT22;27271;45.412;10.852;2023-03-14T07:28:50;9.90;99.90
41547;DHT22;27271;45.412;10.852;2023-03-14T07:32:14;9.90;99.90
41547;DHT22;27271;45.412;10.852;2023-03-14T07:35:37;10.00;99.90
41547;DHT22;27271;45.412;10.852;2023-03-14T07:39:00;10.00;87.20
41547;DHT22;27271;45.412;10.852;2023-03-14T07:42:35;10.00;38.80
41547;DHT22;27271;45.412;10.852;2023-03-14T07:46:09;10.10;67.60
41547;DHT22;27271;45.412;10.852;2023-03-14T07:49:31;10.10;92.00
41547;DHT22;27271;45.412;10.852;2023-03-14T07:52:54;10.10;54.30
41547;DHT22;27271;45.412;10.852;2023-03-14T07:56:16;10.20;99.90
41547;DHT22;27271;45.412;10.852;2023-03-14T07:59:38;10.10;99.90
41547;DHT22;27271;45.412;10.852;2023-03-14T08:03:00;10.10;99.90
41547;DHT22;27271;45.412;10.852;2023-03-14T08:06:22;10.20;99.90
41547;DHT22;27271;45.412;10.852;2023-03-14T08:09:44;10.20;99.90
41547;DHT22;27271;45.412;10.852;2023-03-14T08:13:06;10.20;99.90
41547;DHT22;27271;45.412;10.852;2023-03-14T08:16:28;10.20;99.90
41547;DHT22;27271;45.412;10.852;2023-03-14T08:19:50;10.20;99.90
41547;DHT22;27271;45.412;10.852;2023-03-14T08:23:12;10.20;99.90
41547;DHT22;27271;45.412;10.852;2023-03-14T08:26:34;10.20;99.90
41547;DHT22;27271;45.412;10.852;2023-03-14T08:29:57;10.10;99.90
41547;DHT22;27271;45.412;10.852;2023-03-14T08:33:19;10.10;99.90
41547;DHT22;27271;45.412;10.852;2023-03-14T08:36:41;10.10;99.90
41547;DHT22;27271;45.412;10.852;2023-03-14T08:40:05;10.20;99.90
41547;DHT22;27271;45.412;10.852;2023-03-14T08:43:31;10.30;99.90
41547;DHT22;27271;45.412;10.852;2023-03-14T08:46:53;10.20;99.90
41547;DHT22;27271;45.412;10.852;2023-03-14T08:50:16;10.20;99.90
41547;DHT22;27271;45.412;10.852;2023-03-14T08:53:38;10.20;99.90
41547;DHT22;27271;45.412;10.852;2023-03-14T08:57:00;10.10;99.90
41547;DHT22;27271;45.412;10.852;2023-03-14T09:00:22;10.10;99.90
41547;DHT22;27271;45.412;10.852;2023-03-14T09:03:44;10.10;99.90
41547;DHT22;27271;45.412;10.852;2023-03-14T09:07:07;10.20;99.90
41547;DHT22;27271;45.412;10.852;2023-03-14T09:10:29;10.30;99.90
41547;DHT22;27271;45.412;10.852;2023-03-14T09:13:51;10.40;99.90
41547;DHT22;27271;45.412;10.852;2023-03-14T09:17:13;10.40;99.90
41547;DHT22;27271;45.412;10.852;2023-03-14T09:20:35;10.40;99.90
41547;DHT22;27271;45.412;10.852;2023-03-14T09:23:58;10.20;99.90
41547;DHT22;27271;45.412;10.852;2023-03-14T09:27:20;10.30;99.90
41547;DHT22;27271;45.412;10.852;2023-03-14T09:30:42;10.10;99.90
41547;DHT22;27271;45.412;10.852;2023-03-14T09:34:04;10.00;99.90
41547;DHT22;27271;45.412;10.852;2023-03-14T09:37:27;10.00;99.90
41547;DHT22;27271;45.412;10.852;2023-03-14T09:40:49;10.00;99.90
41547;DHT22;27271;45.412;10.852;2023-03-14T09:47:43;10.20;99.90
41547;DHT22;27271;45.412;10.852;2023-03-14T09:51:20;10.10;99.90
41547;DHT22;27271;45.412;10.852;2023-03-14T09:54:51;10.10;99.90
41547;DHT22;27271;45.412;10.852;2023-03-14T09:58:17;10.00;99.90
41547;DHT22;27271;45.412;10.852;2023-03-14T10:01:40;9.90;99.90
41547;DHT22;27271;45.412;10.852;2023-03-14T10:05:13;10.00;99.90
41547;DHT22;27271;45.412;10.852;2023-03-14T10:08:38;10.10;99.90
41547;DHT22;27271;45.412;10.852;2023-03-14T10:12:01;9.90;99.90
41547;DHT22;27271;45.412;10.852;2023-03-14T10:15:31;9.90;99.90
41547;DHT22;27271;45.412;10.852;2023-03-14T10:19:01;9.80;99.90
41547;DHT22;27271;45.412;10.852;2023-03-14T10:22:27;9.80;99.90
41547;DHT22;27271;45.412;10.852;2023-03-14T10:26:05;9.70;99.90
41547;DHT22;27271;45.412;10.852;2023-03-14T10:29:32;9.80;99.90
41547;DHT22;27271;45.412;10.852;2023-03-14T10:32:55;9.80;99.90
41547;DHT22;27271;45.412;10.852;2023-03-14T10:36:30;9.80;99.90
41547;DHT22;27271;45.412;10.852;2023-03-14T10:39:55;9.90;99.90
41547;DHT22;27271;45.412;10.852;2023-03-14T10:47:04;10.40;99.90
41547;DHT22;27271;45.412;10.852;2023-03-14T10:50:30;10.30;99.90
41547;DHT22;27271;45.412;10.852;2023-03-14T10:54:12;10.30;99.90
41547;DHT22;27271;45.412;10.852;2023-03-14T10:57:39;10.30;99.90
41547;DHT22;27271;45.412;10.852;2023-03-14T11:08:31;10.20;99.90
41547;DHT22;27271;45.412;10.852;2023-03-14T11:12:32;10.10;99.90
41547;DHT22;27271;45.412;10.852;2023-03-14T11:16:28;10.10;99.90
41547;DHT22;27271;45.412;10.852;2023-03-14T11:20:17;10.20;99.90
41547;DHT22;27271;45.412;10.852;2023-03-14T11:28:27;10.20;99.90
41547;DHT22;27271;45.412;10.852;2023-03-14T11:31:43;10.20;99.90
41547;DHT22;27271;45.412;10.852;2023-03-14T11:35:17;10.50;99.90
41547;DHT22;27271;45.412;10.852;2023-03-14T11:38:53;10.20;99.90
41547;DHT22;27271;45.412;10.852;2023-03-14T11:42:17;10.30;99.90
41547;DHT22;27271;45.412;10.852;2023-03-14T11:45:41;10.30;99.90
41547;DHT22;27271;45.412;10.852;2023-03-14T11:52:54;10.40;99.90
41547;DHT22;27271;45.412;10.852;2023-03-14T11:56:36;10.40;99.90
41547;DHT22;27271;45.412;10.852;2023-03-14T12:00:21;10.30;99.90
41547;DHT22;27271;45.412;10.852;2023-03-14T12:03:57;10.10;99.90
41547;DHT22;27271;45.412;10.852;2023-03-14T12:15:00;10.20;99.90
41547;DHT22;27271;45.412;10.852;2023-03-14T12:18:31;10.10;99.90
41547;DHT22;27271;45.412;10.852;2023-03-14T12:25:27;10.20;99.90
41547;DHT22;27271;45.412;10.852;2023-03-14T12:28:53;10.30;99.90
41547;DHT22;27271;45.412;10.852;2023-03-14T12:32:31;10.50;99.90
41547;DHT22;27271;45.412;10.852;2023-03-14T12:36:02;10.60;99.90
41547;DHT22;27271;45.412;10.852;2023-03-14T12:39:45;10.70;99.90
41547;DHT22;27271;45.412;10.852;2023-03-14T12:43:30;10.60;99.90
41547;DHT22;27271;45.412;10.852;2023-03-14T12:46:53;10.80;99.90
41547;DHT22;27271;45.412;10.852;2023-03-14T12:50:19;10.90;99.90
41547;DHT22;27271;45.412;10.852;2023-03-14T13:01:33;11.20;99.90
41547;DHT22;27271;45.412;10.852;2023-03-14T13:05:09;11.30;99.90
41547;DHT22;27271;45.412;10.852;2023-03-14T13:08:41;11.70;99.90
41547;DHT22;27271;45.412;10.852;2023-03-14T13:12:09;12.00;99.90
41547;DHT22;27271;45.412;10.852;2023-03-14T13:15:35;11.50;99.90
41547;DHT22;27271;45.412;10.852;2023-03-14T13:19:03;11.40;99.90
41547;DHT22;27271;45.412;10.852;2023-03-14T13:22:28;11.10;99.90
41547;DHT22;27271;45.412;10.852;2023-03-14T13:25:52;11.10;99.90
41547;DHT22;27271;45.412;10.852;2023-03-14T13:32:41;12.00;99.90
41547;DHT22;27271;45.412;10.852;2023-03-14T13:36:04;12.30;99.90
41547;DHT22;27271;45.412;10.852;2023-03-14T13:39:28;12.80;99.90
41547;DHT22;27271;45.412;10.852;2023-03-14T13:43:04;13.30;99.90
41547;DHT22;27271;45.412;10.852;2023-03-14T13:46:26;13.50;77.60
41547;DHT22;27271;45.412;10.852;2023-03-14T13:49:49;13.40;99.90
41547;DHT22;27271;45.412;10.852;2023-03-14T13:53:12;13.10;99.90
41547;DHT22;27271;45.412;10.852;2023-03-14T13:56:34;12.90;1.00
41547;DHT22;27271;45.412;10.852;2023-03-14T14:00:04;12.50;76.00
41547;DHT22;27271;45.412;10.852;2023-03-14T14:03:38;12.40;99.90
41547;DHT22;27271;45.412;10.852;2023-03-14T14:07:07;12.30;99.90
41547;DHT22;27271;45.412;10.852;2023-03-14T14:10:30;12.50;99.90
41547;DHT22;27271;45.412;10.852;2023-03-14T14:13:52;12.30;99.90
41547;DHT22;27271;45.412;10.852;2023-03-14T14:17:38;12.40;99.90
41547;DHT22;27271;45.412;10.852;2023-03-14T14:21:03;12.40;99.90
41547;DHT22;27271;45.412;10.852;2023-03-14T14:24:30;12.60;99.90
41547;DHT22;27271;45.412;10.852;2023-03-14T14:27:53;12.70;99.90
41547;DHT22;27271;45.412;10.852;2023-03-14T14:38:08;12.60;99.90
41547;DHT22;27271;45.412;10.852;2023-03-14T14:41:39;12.80;99.90
41547;DHT22;27271;45.412;10.852;2023-03-14T14:45:03;13.00;99.90
41547;DHT22;27271;45.412;10.852;2023-03-14T14:48:26;13.20;99.90
41547;DHT22;27271;45.412;10.852;2023-03-14T14:51:50;13.50;1.00
41547;DHT22;27271;45.412;10.852;2023-03-14T14:55:21;13.80;99.90
41547;DHT22;27271;45.412;10.852;2023-03-14T14:58:47;13.80;99.90
41547;DHT22;27271;45.412;10.852;2023-03-14T15:02:26;13.60;99.90
41547;DHT22;27271;45.412;10.852;2023-03-14T15:05:49;13.10;99.90
41547;DHT22;27271;45.412;10.852;2023-03-14T15:09:11;13.10;99.90
41547;DHT22;27271;45.412;10.852;2023-03-14T15:12:33;13.20;99.90
41547;DHT22;27271;45.412;10.852;2023-03-14T15:15:55;13.10;1.00
41547;DHT22;27271;45.412;10.852;2023-03-14T15:19:24;13.00;1.00
41547;DHT22;27271;45.412;10.852;2023-03-14T15:22:47;12.80;1.00
41547;DHT22;27271;45.412;10.852;2023-03-14T15:26:21;12.60;1.00
41547;DHT22;27271;45.412;10.852;2023-03-14T15:29:44;12.60;22.30
41547;DHT22;27271;45.412;10.852;2023-03-14T15:33:06;12.70;21.60
41547;DHT22;27271;45.412;10.852;2023-03-14T15:36:34;12.60;1.00
41547;DHT22;27271;45.412;10.852;2023-03-14T15:39:57;12.90;41.50
41547;DHT22;27271;45.412;10.852;2023-03-14T15:43:19;13.20;91.00
41547;DHT22;27271;45.412;10.852;2023-03-14T15:46:42;13.20;1.00
41547;DHT22;27271;45.412;10.852;2023-03-14T15:50:04;13.00;1.00
41547;DHT22;27271;45.412;10.852;2023-03-14T15:53:26;13.00;1.00
41547;DHT22;27271;45.412;10.852;2023-03-14T15:56:48;13.20;32.70
41547;DHT22;27271;45.412;10.852;2023-03-14T16:00:16;13.00;1.00
41547;DHT22;27271;45.412;10.852;2023-03-14T16:03:39;12.90;1.00
41547;DHT22;27271;45.412;10.852;2023-03-14T16:07:02;12.60;1.00
41547;DHT22;27271;45.412;10.852;2023-03-14T16:10:26;12.60;1.00
41547;DHT22;27271;45.412;10.852;2023-03-14T16:13:51;12.80;1.00
41547;DHT22;27271;45.412;10.852;2023-03-14T16:17:14;13.00;1.00
41547;DHT22;27271;45.412;10.852;2023-03-14T16:20:36;13.10;1.00
41547;DHT22;27271;45.412;10.852;2023-03-14T16:24:08;13.30;1.00
41547;DHT22;27271;45.412;10.852;2023-03-14T16:27:30;13.20;1.00
41547;DHT22;27271;45.412;10.852;2023-03-14T16:30:59;13.10;1.00
41547;DHT22;27271;45.412;10.852;2023-03-14T16:34:22;12.90;1.00
41547;DHT22;27271;45.412;10.852;2023-03-14T16:37:44;12.70;1.00
41547;DHT22;27271;45.412;10.852;2023-03-14T16:41:11;12.60;1.00
41547;DHT22;27271;45.412;10.852;2023-03-14T16:44:35;12.50;1.00
41547;DHT22;27271;45.412;10.852;2023-03-14T16:47:58;12.50;1.00
41547;DHT22;27271;45.412;10.852;2023-03-14T16:51:21;12.40;59.00
41547;DHT22;27271;45.412;10.852;2023-03-14T16:54:43;12.40;49.30
41547;DHT22;27271;45.412;10.852;2023-03-14T16:58:05;12.30;1.00
41547;DHT22;27271;45.412;10.852;2023-03-14T17:01:27;12.20;1.00
41547;DHT22;27271;45.412;10.852;2023-03-14T17:04:50;12.20;1.00
41547;DHT22;27271;45.412;10.852;2023-03-14T17:08:12;12.10;8.20
41547;DHT22;27271;45.412;10.852;2023-03-14T17:11:42;12.10;1.00
41547;DHT22;27271;45.412;10.852;2023-03-14T17:15:06;12.00;1.00
41547;DHT22;27271;45.412;10.852;2023-03-14T17:18:32;11.90;19.90
41547;DHT22;27271;45.412;10.852;2023-03-14T17:21:58;11.80;4.80
41547;DHT22;27271;45.412;10.852;2023-03-14T17:25:40;11.70;67.10
41547;DHT22;27271;45.412;10.852;2023-03-14T17:29:02;11.60;99.90
41547;DHT22;27271;45.412;10.852;2023-03-14T17:32:24;11.60;99.90
41547;DHT22;27271;45.412;10.852;2023-03-14T17:35:47;11.50;99.90
41547;DHT22;27271;45.412;10.852;2023-03-14T17:39:09;11.50;99.90
41547;DHT22;27271;45.412;10.852;2023-03-14T17:42:31;11.60;99.90
41547;DHT22;27271;45.412;10.852;2023-03-14T17:45:58;11.60;99.90
41547;DHT22;27271;45.412;10.852;2023-03-14T17:49:20;11.50;99.90
41547;DHT22;27271;45.412;10.852;2023-03-14T17:52:42;11.60;99.90
41547;DHT22;27271;45.412;10.852;2023-03-14T17:56:04;11.70;99.90
41547;DHT22;27271;45.412;10.852;2023-03-14T17:59:26;11.70;99.90
41547;DHT22;27271;45.412;10.852;2023-03-14T18:02:49;11.60;99.90
41547;DHT22;27271;45.412;10.852;2023-03-14T18:06:13;11.60;99.90
41547;DHT22;27271;45.412;10.852;2023-03-14T18:09:35;11.70;99.90
41547;DHT22;27271;45.412;10.852;2023-03-14T18:12:57;11.70;99.90
41547;DHT22;27271;45.412;10.852;2023-03-14T18:16:19;11.70;99.90
41547;DHT22;27271;45.412;10.852;2023-03-14T18:19:42;11.70;99.90
41547;DHT22;27271;45.412;10.852;2023-03-14T18:23:04;11.70;99.90
41547;DHT22;27271;45.412;10.852;2023-03-14T18:26:27;11.60;99.90
41547;DHT22;27271;45.412;10.852;2023-03-14T18:29:49;11.60;99.90
41547;DHT22;27271;45.412;10.852;2023-03-14T18:33:11;11.60;99.90
41547;DHT22;27271;45.412;10.852;2023-03-14T18:36:34;11.60;99.90
41547;DHT22;27271;45.412;10.852;2023-03-14T18:39:56;11.50;99.90
41547;DHT22;27271;45.412;10.852;2023-03-14T18:43:18;11.40;99.90
41547;DHT22;27271;45.412;10.852;2023-03-14T18:46:42;11.50;99.90
41547;DHT22;27271;45.412;10.852;2023-03-14T18:50:07;11.50;99.90
41547;DHT22;27271;45.412;10.852;2023-03-14T18:53:35;11.50;99.90
41547;DHT22;27271;45.412;10.852;2023-03-14T18:57:00;11.50;99.90
41547;DHT22;27271;45.412;10.852;2023-03-14T19:00:22;11.50;99.90
41547;DHT22;27271;45.412;10.852;2023-03-14T19:03:47;11.50;99.90
41547;DHT22;27271;45.412;10.852;2023-03-14T19:07:09;11.50;99.90
41547;DHT22;27271;45.412;10.852;2023-03-14T19:10:34;11.40;99.90
41547;DHT22;27271;45.412;10.852;2023-03-14T19:13:56;11.40;99.90
41547;DHT22;27271;45.412;10.852;2023-03-14T19:17:20;11.30;99.90
41547;DHT22;27271;45.412;10.852;2023-03-14T19:20:42;11.30;99.90
41547;DHT22;27271;45.412;10.852;2023-03-14T19:24:06;11.30;99.90
41547;DHT22;27271;45.412;10.852;2023-03-14T19:27:28;11.20;99.90
41547;DHT22;27271;45.412;10.852;2023-03-14T19:30:51;11.20;99.90
41547;DHT22;27271;45.412;10.852;2023-03-14T19:34:13;11.20;99.90
41547;DHT22;27271;45.412;10.852;2023-03-14T19:37:35;11.20;99.90
41547;DHT22;27271;45.412;10.852;2023-03-14T19:41:00;11.20;99.90
41547;DHT22;27271;45.412;10.852;2023-03-14T19:44:22;11.10;99.90
41547;DHT22;27271;45.412;10.852;2023-03-14T19:47:45;11.20;99.90
41547;DHT22;27271;45.412;10.852;2023-03-14T19:51:07;11.20;99.90
41547;DHT22;27271;45.412;10.852;2023-03-14T19:54:30;11.20;99.90
41547;DHT22;27271;45.412;10.852;2023-03-14T19:57:52;11.20;99.90
41547;DHT22;27271;45.412;10.852;2023-03-14T20:01:14;11.30;99.90
41547;DHT22;27271;45.412;10.852;2023-03-14T20:04:36;11.30;99.90
41547;DHT22;27271;45.412;10.852;2023-03-14T20:07:58;11.30;99.90
41547;DHT22;27271;45.412;10.852;2023-03-14T20:11:20;11.20;99.90
41547;DHT22;27271;45.412;10.852;2023-03-14T20:14:42;11.20;99.90
41547;DHT22;27271;45.412;10.852;2023-03-14T20:18:04;11.20;99.90
41547;DHT22;27271;45.412;10.852;2023-03-14T20:21:26;11.20;99.90
41547;DHT22;27271;45.412;10.852;2023-03-14T20:24:49;11.20;99.90
41547;DHT22;27271;45.412;10.852;2023-03-14T20:28:13;11.20;99.90
41547;DHT22;27271;45.412;10.852;2023-03-14T20:31:35;11.20;99.90
41547;DHT22;27271;45.412;10.852;2023-03-14T20:34:58;11.00;99.90
41547;DHT22;27271;45.412;10.852;2023-03-14T20:38:23;10.90;99.90
41547;DHT22;27271;45.412;10.852;2023-03-14T20:41:47;10.90;99.90
41547;DHT22;27271;45.412;10.852;2023-03-14T20:45:09;10.90;99.90
41547;DHT22;27271;45.412;10.852;2023-03-14T20:48:31;10.80;99.90
41547;DHT22;27271;45.412;10.852;2023-03-14T20:51:54;10.80;99.90
41547;DHT22;27271;45.412;10.852;2023-03-14T20:55:16;10.70;99.90
41547;DHT22;27271;45.412;10.852;2023-03-14T20:58:38;10.80;99.90
41547;DHT22;27271;45.412;10.852;2023-03-14T21:02:00;10.60;99.90
41547;DHT22;27271;45.412;10.852;2023-03-14T21:05:22;10.60;99.90
41547;DHT22;27271;45.412;10.852;2023-03-14T21:08:45;10.60;99.90
41547;DHT22;27271;45.412;10.852;2023-03-14T21:12:07;10.50;99.90
41547;DHT22;27271;45.412;10.852;2023-03-14T21:15:29;10.50;99.90
41547;DHT22;27271;45.412;10.852;2023-03-14T21:18:51;10.50;99.90
41547;DHT22;27271;45.412;10.852;2023-03-14T21:22:13;10.40;99.90
41547;DHT22;27271;45.412;10.852;2023-03-14T21:25:39;10.40;99.90
41547;DHT22;27271;45.412;10.852;2023-03-14T21:29:05;10.40;99.90
41547;DHT22;27271;45.412;10.852;2023-03-14T21:32:27;10.40;99.90
41547;DHT22;27271;45.412;10.852;2023-03-14T21:35:51;10.30;99.90
41547;DHT22;27271;45.412;10.852;2023-03-14T21:39:13;10.20;99.90
41547;DHT22;27271;45.412;10.852;2023-03-14T21:42:35;10.20;99.90
41547;DHT22;27271;45.412;10.852;2023-03-14T21:45:57;10.10;99.90
41547;DHT22;27271;45.412;10.852;2023-03-14T21:49:19;10.10;99.90
41547;DHT22;27271;45.412;10.852;2023-03-14T21:52:42;10.00;99.90
41547;DHT22;27271;45.412;10.852;2023-03-14T21:56:07;10.00;99.90
41547;DHT22;27271;45.412;10.852;2023-03-14T21:59:30;10.10;99.90
41547;DHT22;27271;45.412;10.852;2023-03-14T22:02:54;10.10;99.90
41547;DHT22;27271;45.412;10.852;2023-03-14T22:06:34;10.00;99.90
41547;DHT22;27271;45.412;10.852;2023-03-14T22:09:56;10.00;99.90
41547;DHT22;27271;45.412;10.852;2023-03-14T22:13:19;9.90;99.90
41547;DHT22;27271;45.412;10.852;2023-03-14T22:16:41;9.80;99.90
41547;DHT22;27271;45.412;10.852;2023-03-14T22:20:04;9.80;99.90
41547;DHT22;27271;45.412;10.852;2023-03-14T22:23:30;9.70;99.90
41547;DHT22;27271;45.412;10.852;2023-03-14T22:26:54;9.60;99.90